sensor_id;sensor_type;location;lat;lon;timestamp;temperature;humidity
27559;DHT22;15002;52.028;5.670;2024-02-23T00:01:45;8.10;99.90
27559;DHT22;15002;52.028;5.670;2024-02-23T00:04:11;8.00;99.90
27559;DHT22;15002;52.028;5.670;2024-02-23T00:06:37;8.00;99.90
27559;DHT22;15002;52.028;5.670;2024-02-23T00:09:02;7.90;99.90
27559;DHT22;15002;52.028;5.670;2024-02-23T00:11:28;8.10;99.90
27559;DHT22;15002;52.028;5.670;2024-02-23T00:13:54;8.20;99.90
27559;DHT22;15002;52.028;5.670;2024-02-23T00:16:20;8.20;99.90
27559;DHT22;15002;52.028;5.670;2024-02-23T00:18:45;8.20;99.90
27559;DHT22;15002;52.028;5.670;2024-02-23T00:21:11;8.10;99.90
27559;DHT22;15002;52.028;5.670;2024-02-23T00:23:37;8.10;99.90
27559;DHT22;15002;52.028;5.670;2024-02-23T00:26:03;8.10;99.90
27559;DHT22;15002;52.028;5.670;2024-02-23T00:28:28;8.10;99.90
27559;DHT22;15002;52.028;5.670;2024-02-23T00:30:54;8.20;99.90
27559;DHT22;15002;52.028;5.670;2024-02-23T00:33:20;8.10;99.90
27559;DHT22;15002;52.028;5.670;2024-02-23T00:35:45;8.10;99.90
27559;DHT22;15002;52.028;5.670;2024-02-23T00:38:11;8.10;99.90
27559;DHT22;15002;52.028;5.670;2024-02-23T00:40:37;8.20;99.90
27559;DHT22;15002;52.028;5.670;2024-02-23T00:43:04;8.30;99.90
27559;DHT22;15002;52.028;5.670;2024-02-23T00:45:29;8.10;99.90
27559;DHT22;15002;52.028;5.670;2024-02-23T00:47:55;8.10;99.90
27559;DHT22;15002;52.028;5.670;2024-02-23T00:50:22;8.20;99.90
27559;DHT22;15002;52.028;5.670;2024-02-23T00:52:51;8.10;99.90
27559;DHT22;15002;52.028;5.670;2024-02-23T00:55:17;8.10;99.90
27559;DHT22;15002;52.028;5.670;2024-02-23T00:57:43;7.90;99.90
27559;DHT22;15002;52.028;5.670;2024-02-23T01:00:09;7.80;99.90
27559;DHT22;15002;52.028;5.670;2024-02-23T01:02:35;7.60;99.90
27559;DHT22;15002;52.028;5.670;2024-02-23T01:05:01;7.40;99.90
27559;DHT22;15002;52.028;5.670;2024-02-23T01:07:27;7.50;99.90
27559;DHT22;15002;52.028;5.670;2024-02-23T01:09:53;7.60;99.90
27559;DHT22;15002;52.028;5.670;2024-02-23T01:12:19;7.60;99.90
27559;DHT22;15002;52.028;5.670;2024-02-23T01:14:44;7.60;99.90
27559;DHT22;15002;52.028;5.670;2024-02-23T01:17:10;7.50;99.90
27559;DHT22;15002;52.028;5.670;2024-02-23T01:19:36;7.50;99.90
27559;DHT22;15002;52.028;5.670;2024-02-23T01:22:01;7.40;99.90
27559;DHT22;15002;52.028;5.670;2024-02-23T01:24:27;7.50;99.90
27559;DHT22;15002;52.028;5.670;2024-02-23T01:26:55;7.60;99.90
27559;DHT22;15002;52.028;5.670;2024-02-23T01:29:21;7.60;99.90
27559;DHT22;15002;52.028;5.670;2024-02-23T01:31:48;7.70;99.90
27559;DHT22;15002;52.028;5.670;2024-02-23T01:34:14;7.60;99.90
27559;DHT22;15002;52.028;5.670;2024-02-23T01:36:40;7.70;99.90
27559;DHT22;15002;52.028;5.670;2024-02-23T01:39:05;7.70;99.90
27559;DHT22;15002;52.028;5.670;2024-02-23T01:41:32;7.80;99.90
27559;DHT22;15002;52.028;5.670;2024-02-23T01:43:58;7.70;99.90
27559;DHT22;15002;52.028;5.670;2024-02-23T01:46:24;7.70;99.90
27559;DHT22;15002;52.028;5.670;2024-02-23T01:48:50;7.60;99.90
27559;DHT22;15002;52.028;5.670;2024-02-23T01:51:16;7.70;99.90
27559;DHT22;15002;52.028;5.670;2024-02-23T01:53:42;7.60;99.90
27559;DHT22;15002;52.028;5.670;2024-02-23T01:56:09;7.50;99.90
27559;DHT22;15002;52.028;5.670;2024-02-23T01:58:37;7.50;99.90
27559;DHT22;15002;52.028;5.670;2024-02-23T02:01:03;7.60;99.90
27559;DHT22;15002;52.028;5.670;2024-02-23T02:03:29;7.50;99.90
27559;DHT22;15002;52.028;5.670;2024-02-23T02:05:56;7.50;99.90
27559;DHT22;15002;52.028;5.670;2024-02-23T02:08:27;7.50;99.90
27559;DHT22;15002;52.028;5.670;2024-02-23T02:10:52;7.40;99.90
27559;DHT22;15002;52.028;5.670;2024-02-23T02:13:18;7.30;99.90
27559;DHT22;15002;52.028;5.670;2024-02-23T02:15:44;7.40;99.90
27559;DHT22;15002;52.028;5.670;2024-02-23T02:18:10;7.30;99.90
27559;DHT22;15002;52.028;5.670;2024-02-23T02:20:36;7.40;99.90
27559;DHT22;15002;52.028;5.670;2024-02-23T02:23:02;7.40;99.90
27559;DHT22;15002;52.028;5.670;2024-02-23T02:25:28;7.20;99.90
27559;DHT22;15002;52.028;5.670;2024-02-23T02:27:54;7.10;99.90
27559;DHT22;15002;52.028;5.670;2024-02-23T02:30:19;7.30;99.90
27559;DHT22;15002;52.028;5.670;2024-02-23T02:32:45;7.30;99.90
27559;DHT22;15002;52.028;5.670;2024-02-23T02:35:11;7.40;99.90
27559;DHT22;15002;52.028;5.670;2024-02-23T02:37:39;7.20;99.90
27559;DHT22;15002;52.028;5.670;2024-02-23T02:40:05;7.20;99.90
27559;DHT22;15002;52.028;5.670;2024-02-23T02:42:32;7.30;99.90
27559;DHT22;15002;52.028;5.670;2024-02-23T02:44:58;7.30;99.90
27559;DHT22;15002;52.028;5.670;2024-02-23T02:47:23;7.30;99.90
27559;DHT22;15002;52.028;5.670;2024-02-23T02:49:49;7.60;99.90
27559;DHT22;15002;52.028;5.670;2024-02-23T02:52:15;7.80;99.90
27559;DHT22;15002;52.028;5.670;2024-02-23T02:54:41;8.00;99.90
27559;DHT22;15002;52.028;5.670;2024-02-23T02:57:06;7.80;99.90
27559;DHT22;15002;52.028;5.670;2024-02-23T02:59:35;7.70;99.90
27559;DHT22;15002;52.028;5.670;2024-02-23T03:02:01;7.70;99.90
27559;DHT22;15002;52.028;5.670;2024-02-23T03:04:27;7.80;99.90
27559;DHT22;15002;52.028;5.670;2024-02-23T03:06:53;7.90;99.90
27559;DHT22;15002;52.028;5.670;2024-02-23T03:09:18;7.80;99.90
27559;DHT22;15002;52.028;5.670;2024-02-23T03:11:44;8.10;99.90
27559;DHT22;15002;52.028;5.670;2024-02-23T03:14:09;8.10;99.90
27559;DHT22;15002;52.028;5.670;2024-02-23T03:16:35;8.00;99.90
27559;DHT22;15002;52.028;5.670;2024-02-23T03:19:02;8.00;99.90
27559;DHT22;15002;52.028;5.670;2024-02-23T03:21:28;7.70;99.90
27559;DHT22;15002;52.028;5.670;2024-02-23T03:23:54;7.80;99.90
27559;DHT22;15002;52.028;5.670;2024-02-23T03:26:20;7.70;99.90
27559;DHT22;15002;52.028;5.670;2024-02-23T03:28:45;7.70;99.90
27559;DHT22;15002;52.028;5.670;2024-02-23T03:31:11;7.50;99.90
27559;DHT22;15002;52.028;5.670;2024-02-23T03:33:37;7.50;99.90
27559;DHT22;15002;52.028;5.670;2024-02-23T03:36:03;7.50;99.90
27559;DHT22;15002;52.028;5.670;2024-02-23T03:38:29;7.50;99.90
27559;DHT22;15002;52.028;5.670;2024-02-23T03:40:55;7.60;99.90
27559;DHT22;15002;52.028;5.670;2024-02-23T03:43:21;7.70;99.90
27559;DHT22;15002;52.028;5.670;2024-02-23T03:45:47;7.90;99.90
27559;DHT22;15002;52.028;5.670;2024-02-23T03:48:13;7.80;99.90
27559;DHT22;15002;52.028;5.670;2024-02-23T03:50:38;8.00;99.90
27559;DHT22;15002;52.028;5.670;2024-02-23T03:53:04;8.00;99.90
27559;DHT22;15002;52.028;5.670;2024-02-23T03:55:30;8.00;99.90
27559;DHT22;15002;52.028;5.670;2024-02-23T03:57:55;7.90;99.90
27559;DHT22;15002;52.028;5.670;2024-02-23T04:00:21;7.90;99.90
27559;DHT22;15002;52.028;5.670;2024-02-23T04:02:48;7.70;99.90
27559;DHT22;15002;52.028;5.670;2024-02-23T04:05:14;7.40;99.90
27559;DHT22;15002;52.028;5.670;2024-02-23T04:07:40;7.60;99.90
27559;DHT22;15002;52.028;5.670;2024-02-23T04:10:06;7.70;99.90
27559;DHT22;15002;52.028;5.670;2024-02-23T04:12:32;7.70;99.90
27559;DHT22;15002;52.028;5.670;2024-02-23T04:14:58;7.80;99.90
27559;DHT22;15002;52.028;5.670;2024-02-23T04:17:23;7.70;99.90
27559;DHT22;15002;52.028;5.670;2024-02-23T04:19:49;7.60;99.90
27559;DHT22;15002;52.028;5.670;2024-02-23T04:22:15;7.50;99.90
27559;DHT22;15002;52.028;5.670;2024-02-23T04:24:41;7.40;99.90
27559;DHT22;15002;52.028;5.670;2024-02-23T04:27:07;7.60;99.90
27559;DHT22;15002;52.028;5.670;2024-02-23T04:29:33;7.60;99.90
27559;DHT22;15002;52.028;5.670;2024-02-23T04:32:02;7.70;99.90
27559;DHT22;15002;52.028;5.670;2024-02-23T04:34:28;7.70;99.90
27559;DHT22;15002;52.028;5.670;2024-02-23T04:36:55;8.00;99.90
27559;DHT22;15002;52.028;5.670;2024-02-23T04:39:21;7.80;99.90
27559;DHT22;15002;52.028;5.670;2024-02-23T04:41:47;8.00;99.90
27559;DHT22;15002;52.028;5.670;2024-02-23T04:44:12;8.00;99.90
27559;DHT22;15002;52.028;5.670;2024-02-23T04:46:38;7.80;99.90
27559;DHT22;15002;52.028;5.670;2024-02-23T04:49:04;7.60;99.90
27559;DHT22;15002;52.028;5.670;2024-02-23T04:51:29;8.00;99.90
27559;DHT22;15002;52.028;5.670;2024-02-23T04:53:55;8.00;99.90
27559;DHT22;15002;52.028;5.670;2024-02-23T04:56:21;8.10;99.90
27559;DHT22;15002;52.028;5.670;2024-02-23T04:58:47;8.00;99.90
27559;DHT22;15002;52.028;5.670;2024-02-23T05:01:12;7.80;99.90
27559;DHT22;15002;52.028;5.670;2024-02-23T05:03:38;8.10;99.90
27559;DHT22;15002;52.028;5.670;2024-02-23T05:06:04;8.20;99.90
27559;DHT22;15002;52.028;5.670;2024-02-23T05:08:30;7.80;99.90
27559;DHT22;15002;52.028;5.670;2024-02-23T05:10:57;8.00;99.90
27559;DHT22;15002;52.028;5.670;2024-02-23T05:13:23;8.20;99.90
27559;DHT22;15002;52.028;5.670;2024-02-23T05:15:48;8.30;99.90
27559;DHT22;15002;52.028;5.670;2024-02-23T05:18:14;8.40;99.90
27559;DHT22;15002;52.028;5.670;2024-02-23T05:20:40;8.30;99.90
27559;DHT22;15002;52.028;5.670;2024-02-23T05:23:05;8.30;99.90
27559;DHT22;15002;52.028;5.670;2024-02-23T05:25:31;8.30;99.90
27559;DHT22;15002;52.028;5.670;2024-02-23T05:27:57;8.30;99.90
27559;DHT22;15002;52.028;5.670;2024-02-23T05:30:22;8.20;99.90
27559;DHT22;15002;52.028;5.670;2024-02-23T05:32:48;8.20;99.90
27559;DHT22;15002;52.028;5.670;2024-02-23T05:35:14;8.40;99.90
27559;DHT22;15002;52.028;5.670;2024-02-23T05:37:41;8.40;99.90
27559;DHT22;15002;52.028;5.670;2024-02-23T05:40:07;8.40;99.90
27559;DHT22;15002;52.028;5.670;2024-02-23T05:42:39;8.30;99.90
27559;DHT22;15002;52.028;5.670;2024-02-23T05:45:06;8.30;99.90
27559;DHT22;15002;52.028;5.670;2024-02-23T05:47:38;8.40;99.90
27559;DHT22;15002;52.028;5.670;2024-02-23T05:50:04;8.70;99.90
27559;DHT22;15002;52.028;5.670;2024-02-23T05:52:33;8.90;99.90
27559;DHT22;15002;52.028;5.670;2024-02-23T05:55:00;8.80;99.90
27559;DHT22;15002;52.028;5.670;2024-02-23T05:57:28;8.80;99.90
27559;DHT22;15002;52.028;5.670;2024-02-23T05:59:54;8.60;99.90
27559;DHT22;15002;52.028;5.670;2024-02-23T06:02:23;8.70;99.90
27559;DHT22;15002;52.028;5.670;2024-02-23T06:04:50;8.80;99.90
27559;DHT22;15002;52.028;5.670;2024-02-23T06:07:15;8.60;99.90
27559;DHT22;15002;52.028;5.670;2024-02-23T06:09:42;8.50;99.90
27559;DHT22;15002;52.028;5.670;2024-02-23T06:12:08;8.60;99.90
27559;DHT22;15002;52.028;5.670;2024-02-23T06:14:34;8.60;99.90
27559;DHT22;15002;52.028;5.670;2024-02-23T06:17:00;8.90;99.90
27559;DHT22;15002;52.028;5.670;2024-02-23T06:19:26;9.00;99.90
27559;DHT22;15002;52.028;5.670;2024-02-23T06:21:51;9.00;99.90
27559;DHT22;15002;52.028;5.670;2024-02-23T06:24:17;9.20;99.90
27559;DHT22;15002;52.028;5.670;2024-02-23T06:26:43;9.00;99.90
27559;DHT22;15002;52.028;5.670;2024-02-23T06:29:09;9.10;99.90
27559;DHT22;15002;52.028;5.670;2024-02-23T06:31:38;9.00;99.90
27559;DHT22;15002;52.028;5.670;2024-02-23T06:34:05;9.00;99.90
27559;DHT22;15002;52.028;5.670;2024-02-23T06:36:31;9.10;99.90
27559;DHT22;15002;52.028;5.670;2024-02-23T06:38:56;9.10;99.90
27559;DHT22;15002;52.028;5.670;2024-02-23T06:41:22;9.10;99.90
27559;DHT22;15002;52.028;5.670;2024-02-23T06:43:48;9.10;99.90
27559;DHT22;15002;52.028;5.670;2024-02-23T06:46:13;9.10;99.90
27559;DHT22;15002;52.028;5.670;2024-02-23T06:48:39;9.10;99.90
27559;DHT22;15002;52.028;5.670;2024-02-23T06:51:05;8.90;99.90
27559;DHT22;15002;52.028;5.670;2024-02-23T06:53:34;9.20;99.90
27559;DHT22;15002;52.028;5.670;2024-02-23T06:56:00;9.20;99.90
27559;DHT22;15002;52.028;5.670;2024-02-23T06:58:27;9.20;99.90
27559;DHT22;15002;52.028;5.670;2024-02-23T07:00:53;9.30;99.90
27559;DHT22;15002;52.028;5.670;2024-02-23T07:03:18;9.30;99.90
27559;DHT22;15002;52.028;5.670;2024-02-23T07:05:44;9.30;99.90
27559;DHT22;15002;52.028;5.670;2024-02-23T07:08:11;9.20;99.90
27559;DHT22;15002;52.028;5.670;2024-02-23T07:10:37;9.40;99.90
27559;DHT22;15002;52.028;5.670;2024-02-23T07:13:03;9.40;99.90
27559;DHT22;15002;52.028;5.670;2024-02-23T07:15:29;9.40;99.90
27559;DHT22;15002;52.028;5.670;2024-02-23T07:17:55;9.40;99.90
27559;DHT22;15002;52.028;5.670;2024-02-23T07:20:22;9.10;99.90
27559;DHT22;15002;52.028;5.670;2024-02-23T07:22:47;9.20;99.90
27559;DHT22;15002;52.028;5.670;2024-02-23T07:25:17;9.10;99.90
27559;DHT22;15002;52.028;5.670;2024-02-23T07:27:44;9.10;99.90
27559;DHT22;15002;52.028;5.670;2024-02-23T07:30:11;9.20;99.90
27559;DHT22;15002;52.028;5.670;2024-02-23T07:32:37;9.10;99.90
27559;DHT22;15002;52.028;5.670;2024-02-23T07:35:03;9.00;99.90
27559;DHT22;15002;52.028;5.670;2024-02-23T07:37:29;9.30;99.90
27559;DHT22;15002;52.028;5.670;2024-02-23T07:39:55;9.40;99.90
27559;DHT22;15002;52.028;5.670;2024-02-23T07:42:21;9.40;99.90
27559;DHT22;15002;52.028;5.670;2024-02-23T07:44:46;9.50;99.90
27559;DHT22;15002;52.028;5.670;2024-02-23T07:47:12;9.50;99.90
27559;DHT22;15002;52.028;5.670;2024-02-23T07:49:38;9.50;99.90
27559;DHT22;15002;52.028;5.670;2024-02-23T07:52:06;9.70;99.90
27559;DHT22;15002;52.028;5.670;2024-02-23T07:54:32;9.50;99.90
27559;DHT22;15002;52.028;5.670;2024-02-23T07:56:58;9.70;99.90
27559;DHT22;15002;52.028;5.670;2024-02-23T07:59:24;9.50;99.90
27559;DHT22;15002;52.028;5.670;2024-02-23T08:01:50;9.50;99.90
27559;DHT22;15002;52.028;5.670;2024-02-23T08:04:15;9.60;99.90
27559;DHT22;15002;52.028;5.670;2024-02-23T08:06:42;9.60;99.90
27559;DHT22;15002;52.028;5.670;2024-02-23T08:09:10;9.40;99.90
27559;DHT22;15002;52.028;5.670;2024-02-23T08:11:36;9.40;99.90
27559;DHT22;15002;52.028;5.670;2024-02-23T08:14:02;9.50;99.90
27559;DHT22;15002;52.028;5.670;2024-02-23T08:16:28;9.60;99.90
27559;DHT22;15002;52.028;5.670;2024-02-23T08:18:54;9.60;99.90
27559;DHT22;15002;52.028;5.670;2024-02-23T08:21:20;9.50;99.90
27559;DHT22;15002;52.028;5.670;2024-02-23T08:23:45;9.50;99.90
27559;DHT22;15002;52.028;5.670;2024-02-23T08:26:11;9.50;99.90
27559;DHT22;15002;52.028;5.670;2024-02-23T08:28:37;9.50;99.90
27559;DHT22;15002;52.028;5.670;2024-02-23T08:31:02;9.70;99.90
27559;DHT22;15002;52.028;5.670;2024-02-23T08:33:28;9.80;99.90
27559;DHT22;15002;52.028;5.670;2024-02-23T08:35:54;9.70;99.90
27559;DHT22;15002;52.028;5.670;2024-02-23T08:38:20;9.70;99.90
27559;DHT22;15002;52.028;5.670;2024-02-23T08:40:45;9.80;99.90
27559;DHT22;15002;52.028;5.670;2024-02-23T08:43:11;10.00;99.90
27559;DHT22;15002;52.028;5.670;2024-02-23T08:45:37;10.00;99.90
27559;DHT22;15002;52.028;5.670;2024-02-23T08:48:03;10.00;99.90
27559;DHT22;15002;52.028;5.670;2024-02-23T08:50:29;10.20;99.90
27559;DHT22;15002;52.028;5.670;2024-02-23T08:52:55;10.20;99.90
27559;DHT22;15002;52.028;5.670;2024-02-23T08:55:20;10.20;99.90
27559;DHT22;15002;52.028;5.670;2024-02-23T08:57:47;10.20;99.90
27559;DHT22;15002;52.028;5.670;2024-02-23T09:00:13;10.30;99.90
27559;DHT22;15002;52.028;5.670;2024-02-23T09:02:40;10.20;99.90
27559;DHT22;15002;52.028;5.670;2024-02-23T09:05:08;10.10;99.90
27559;DHT22;15002;52.028;5.670;2024-02-23T09:07:33;10.20;99.90
27559;DHT22;15002;52.028;5.670;2024-02-23T09:09:59;9.80;99.90
27559;DHT22;15002;52.028;5.670;2024-02-23T09:12:25;9.70;99.90
27559;DHT22;15002;52.028;5.670;2024-02-23T09:14:51;9.80;99.90
27559;DHT22;15002;52.028;5.670;2024-02-23T09:17:17;10.00;99.90
27559;DHT22;15002;52.028;5.670;2024-02-23T09:19:44;10.00;99.90
27559;DHT22;15002;52.028;5.670;2024-02-23T09:22:10;10.10;99.90
27559;DHT22;15002;52.028;5.670;2024-02-23T09:24:39;10.10;99.90
27559;DHT22;15002;52.028;5.670;2024-02-23T09:27:06;10.20;99.90
27559;DHT22;15002;52.028;5.670;2024-02-23T09:29:32;10.10;99.90
27559;DHT22;15002;52.028;5.670;2024-02-23T09:31:58;10.00;99.90
27559;DHT22;15002;52.028;5.670;2024-02-23T09:34:25;10.00;99.90
27559;DHT22;15002;52.028;5.670;2024-02-23T09:36:51;10.00;99.90
27559;DHT22;15002;52.028;5.670;2024-02-23T09:39:17;10.20;99.90
27559;DHT22;15002;52.028;5.670;2024-02-23T09:41:43;10.10;99.90
27559;DHT22;15002;52.028;5.670;2024-02-23T09:44:09;10.30;99.90
27559;DHT22;15002;52.028;5.670;2024-02-23T09:46:37;10.50;99.90
27559;DHT22;15002;52.028;5.670;2024-02-23T09:49:03;10.30;99.90
27559;DHT22;15002;52.028;5.670;2024-02-23T09:51:29;10.30;99.90
27559;DHT22;15002;52.028;5.670;2024-02-23T09:53:57;10.30;99.90
27559;DHT22;15002;52.028;5.670;2024-02-23T09:56:26;10.20;99.90
27559;DHT22;15002;52.028;5.670;2024-02-23T09:58:53;10.00;99.90
27559;DHT22;15002;52.028;5.670;2024-02-23T10:01:27;10.40;99.90
27559;DHT22;15002;52.028;5.670;2024-02-23T10:04:00;10.20;99.90
27559;DHT22;15002;52.028;5.670;2024-02-23T10:06:26;10.10;99.90
27559;DHT22;15002;52.028;5.670;2024-02-23T10:08:52;9.80;99.90
27559;DHT22;15002;52.028;5.670;2024-02-23T10:11:20;9.50;99.90
27559;DHT22;15002;52.028;5.670;2024-02-23T10:13:47;9.40;99.90
27559;DHT22;15002;52.028;5.670;2024-02-23T10:16:15;9.30;99.90
27559;DHT22;15002;52.028;5.670;2024-02-23T10:18:41;9.60;99.90
27559;DHT22;15002;52.028;5.670;2024-02-23T10:21:07;9.60;99.90
27559;DHT22;15002;52.028;5.670;2024-02-23T10:23:32;9.80;99.90
27559;DHT22;15002;52.028;5.670;2024-02-23T10:25:58;9.80;99.90
27559;DHT22;15002;52.028;5.670;2024-02-23T10:28:23;9.90;99.90
27559;DHT22;15002;52.028;5.670;2024-02-23T10:30:49;9.80;99.90
27559;DHT22;15002;52.028;5.670;2024-02-23T10:33:15;9.80;99.90
27559;DHT22;15002;52.028;5.670;2024-02-23T10:35:43;9.80;99.90
27559;DHT22;15002;52.028;5.670;2024-02-23T10:38:11;9.60;99.90
27559;DHT22;15002;52.028;5.670;2024-02-23T10:40:39;10.00;99.90
27559;DHT22;15002;52.028;5.670;2024-02-23T10:43:12;10.20;99.90
27559;DHT22;15002;52.028;5.670;2024-02-23T10:45:41;10.00;99.90
27559;DHT22;15002;52.028;5.670;2024-02-23T10:48:10;10.10;99.90
27559;DHT22;15002;52.028;5.670;2024-02-23T10:50:37;10.30;99.90
27559;DHT22;15002;52.028;5.670;2024-02-23T10:53:04;10.30;99.90
27559;DHT22;15002;52.028;5.670;2024-02-23T10:55:33;10.20;99.90
27559;DHT22;15002;52.028;5.670;2024-02-23T10:58:02;10.10;99.90
27559;DHT22;15002;52.028;5.670;2024-02-23T11:00:29;10.10;99.90
27559;DHT22;15002;52.028;5.670;2024-02-23T11:02:55;10.20;99.90
27559;DHT22;15002;52.028;5.670;2024-02-23T11:05:22;10.00;99.90
27559;DHT22;15002;52.028;5.670;2024-02-23T11:07:49;10.00;99.90
27559;DHT22;15002;52.028;5.670;2024-02-23T11:10:16;10.10;99.90
27559;DHT22;15002;52.028;5.670;2024-02-23T11:12:43;9.80;99.90
27559;DHT22;15002;52.028;5.670;2024-02-23T11:15:09;10.00;99.90
27559;DHT22;15002;52.028;5.670;2024-02-23T11:17:50;10.20;99.90
27559;DHT22;15002;52.028;5.670;2024-02-23T11:20:16;10.20;99.90
27559;DHT22;15002;52.028;5.670;2024-02-23T11:22:42;10.00;99.90
27559;DHT22;15002;52.028;5.670;2024-02-23T11:25:08;10.10;99.90
27559;DHT22;15002;52.028;5.670;2024-02-23T11:27:39;10.00;99.90
27559;DHT22;15002;52.028;5.670;2024-02-23T11:30:09;9.90;99.90
27559;DHT22;15002;52.028;5.670;2024-02-23T11:32:46;10.10;99.90
27559;DHT22;15002;52.028;5.670;2024-02-23T11:35:13;10.00;99.90
27559;DHT22;15002;52.028;5.670;2024-02-23T11:37:56;10.20;99.90
27559;DHT22;15002;52.028;5.670;2024-02-23T11:40:26;10.20;99.90
27559;DHT22;15002;52.028;5.670;2024-02-23T11:42:52;10.40;99.90
27559;DHT22;15002;52.028;5.670;2024-02-23T11:45:19;10.50;99.90
27559;DHT22;15002;52.028;5.670;2024-02-23T11:47:45;10.50;99.90
27559;DHT22;15002;52.028;5.670;2024-02-23T11:50:11;10.40;99.90
27559;DHT22;15002;52.028;5.670;2024-02-23T11:52:39;10.40;99.90
27559;DHT22;15002;52.028;5.670;2024-02-23T11:55:06;10.40;99.90
27559;DHT22;15002;52.028;5.670;2024-02-23T11:57:33;10.60;99.90
27559;DHT22;15002;52.028;5.670;2024-02-23T12:00:01;10.50;99.90
27559;DHT22;15002;52.028;5.670;2024-02-23T12:02:27;10.70;99.90
27559;DHT22;15002;52.028;5.670;2024-02-23T12:04:53;10.70;99.90
27559;DHT22;15002;52.028;5.670;2024-02-23T12:07:19;10.80;99.90
27559;DHT22;15002;52.028;5.670;2024-02-23T12:09:46;10.80;99.90
27559;DHT22;15002;52.028;5.670;2024-02-23T12:12:12;10.90;99.90
27559;DHT22;15002;52.028;5.670;2024-02-23T12:14:39;10.90;99.90
27559;DHT22;15002;52.028;5.670;2024-02-23T12:17:05;10.80;99.90
27559;DHT22;15002;52.028;5.670;2024-02-23T12:19:32;10.90;99.90
27559;DHT22;15002;52.028;5.670;2024-02-23T12:22:02;11.00;99.90
27559;DHT22;15002;52.028;5.670;2024-02-23T12:24:27;11.10;99.90
27559;DHT22;15002;52.028;5.670;2024-02-23T12:26:55;11.10;99.90
27559;DHT22;15002;52.028;5.670;2024-02-23T12:29:20;10.90;99.90
27559;DHT22;15002;52.028;5.670;2024-02-23T12:31:46;11.00;99.90
27559;DHT22;15002;52.028;5.670;2024-02-23T12:34:12;10.70;99.90
27559;DHT22;15002;52.028;5.670;2024-02-23T12:36:39;10.60;99.90
27559;DHT22;15002;52.028;5.670;2024-02-23T12:39:05;10.70;99.90
27559;DHT22;15002;52.028;5.670;2024-02-23T12:41:31;10.90;99.90
27559;DHT22;15002;52.028;5.670;2024-02-23T12:43:57;11.00;99.90
27559;DHT22;15002;52.028;5.670;2024-02-23T12:46:23;11.00;99.90
27559;DHT22;15002;52.028;5.670;2024-02-23T12:48:49;11.20;99.90
27559;DHT22;15002;52.028;5.670;2024-02-23T12:51:15;11.00;99.90
27559;DHT22;15002;52.028;5.670;2024-02-23T12:53:42;11.20;99.90
27559;DHT22;15002;52.028;5.670;2024-02-23T12:56:13;11.30;99.90
27559;DHT22;15002;52.028;5.670;2024-02-23T12:58:41;11.10;99.90
27559;DHT22;15002;52.028;5.670;2024-02-23T13:01:07;11.10;99.90
27559;DHT22;15002;52.028;5.670;2024-02-23T13:03:34;11.10;99.90
27559;DHT22;15002;52.028;5.670;2024-02-23T13:06:00;10.90;99.90
27559;DHT22;15002;52.028;5.670;2024-02-23T13:08:26;11.30;99.90
27559;DHT22;15002;52.028;5.670;2024-02-23T13:10:53;11.50;99.90
27559;DHT22;15002;52.028;5.670;2024-02-23T13:13:19;11.70;99.90
27559;DHT22;15002;52.028;5.670;2024-02-23T13:15:46;11.70;99.90
27559;DHT22;15002;52.028;5.670;2024-02-23T13:18:12;11.60;99.90
27559;DHT22;15002;52.028;5.670;2024-02-23T13:20:39;11.80;99.90
27559;DHT22;15002;52.028;5.670;2024-02-23T13:23:05;11.60;99.90
27559;DHT22;15002;52.028;5.670;2024-02-23T13:25:37;11.80;99.90
27559;DHT22;15002;52.028;5.670;2024-02-23T13:28:02;11.80;99.90
27559;DHT22;15002;52.028;5.670;2024-02-23T13:30:29;11.90;99.90
27559;DHT22;15002;52.028;5.670;2024-02-23T13:32:55;11.90;99.90
27559;DHT22;15002;52.028;5.670;2024-02-23T13:35:20;11.80;99.90
27559;DHT22;15002;52.028;5.670;2024-02-23T13:37:47;11.40;99.90
27559;DHT22;15002;52.028;5.670;2024-02-23T13:40:13;11.40;99.90
27559;DHT22;15002;52.028;5.670;2024-02-23T13:42:39;11.40;99.90
27559;DHT22;15002;52.028;5.670;2024-02-23T13:45:08;11.20;99.90
27559;DHT22;15002;52.028;5.670;2024-02-23T13:47:35;11.10;99.90
27559;DHT22;15002;52.028;5.670;2024-02-23T13:50:01;11.20;99.90
27559;DHT22;15002;52.028;5.670;2024-02-23T13:52:27;11.30;99.90
27559;DHT22;15002;52.028;5.670;2024-02-23T13:54:54;11.20;99.90
27559;DHT22;15002;52.028;5.670;2024-02-23T13:57:19;11.10;99.90
27559;DHT22;15002;52.028;5.670;2024-02-23T13:59:45;11.10;99.90
27559;DHT22;15002;52.028;5.670;2024-02-23T14:02:12;11.20;99.90
27559;DHT22;15002;52.028;5.670;2024-02-23T14:04:37;11.20;99.90
27559;DHT22;15002;52.028;5.670;2024-02-23T14:07:03;11.10;99.90
27559;DHT22;15002;52.028;5.670;2024-02-23T14:09:30;11.20;99.90
27559;DHT22;15002;52.028;5.670;2024-02-23T14:11:56;11.30;99.90
27559;DHT22;15002;52.028;5.670;2024-02-23T14:14:22;11.40;99.90
27559;DHT22;15002;52.028;5.670;2024-02-23T14:16:49;11.40;99.90
27559;DHT22;15002;52.028;5.670;2024-02-23T14:19:14;11.50;99.90
27559;DHT22;15002;52.028;5.670;2024-02-23T14:21:40;11.40;99.90
27559;DHT22;15002;52.028;5.670;2024-02-23T14:24:06;11.30;99.90
27559;DHT22;15002;52.028;5.670;2024-02-23T14:26:32;11.60;99.90
27559;DHT22;15002;52.028;5.670;2024-02-23T14:28:58;11.80;99.90
27559;DHT22;15002;52.028;5.670;2024-02-23T14:31:25;11.70;99.90
27559;DHT22;15002;52.028;5.670;2024-02-23T14:33:51;11.50;99.90
27559;DHT22;15002;52.028;5.670;2024-02-23T14:36:17;11.70;99.90
27559;DHT22;15002;52.028;5.670;2024-02-23T14:38:43;11.90;99.90
27559;DHT22;15002;52.028;5.670;2024-02-23T14:41:09;12.00;99.90
27559;DHT22;15002;52.028;5.670;2024-02-23T14:43:36;12.10;99.90
27559;DHT22;15002;52.028;5.670;2024-02-23T14:46:02;12.10;99.90
27559;DHT22;15002;52.028;5.670;2024-02-23T14:48:28;11.90;99.90
27559;DHT22;15002;52.028;5.670;2024-02-23T14:50:53;12.00;99.90
27559;DHT22;15002;52.028;5.670;2024-02-23T14:53:19;12.10;99.90
27559;DHT22;15002;52.028;5.670;2024-02-23T14:55:45;11.90;99.90
27559;DHT22;15002;52.028;5.670;2024-02-23T14:58:12;11.90;99.90
27559;DHT22;15002;52.028;5.670;2024-02-23T15:00:37;12.10;99.90
27559;DHT22;15002;52.028;5.670;2024-02-23T15:03:04;12.20;99.90
27559;DHT22;15002;52.028;5.670;2024-02-23T15:05:30;12.50;99.90
27559;DHT22;15002;52.028;5.670;2024-02-23T15:07:55;12.60;99.90
27559;DHT22;15002;52.028;5.670;2024-02-23T15:10:21;12.20;99.90
27559;DHT22;15002;52.028;5.670;2024-02-23T15:12:47;12.00;99.90
27559;DHT22;15002;52.028;5.670;2024-02-23T15:15:13;12.10;99.90
27559;DHT22;15002;52.028;5.670;2024-02-23T15:17:39;12.30;99.90
27559;DHT22;15002;52.028;5.670;2024-02-23T15:20:08;12.40;99.90
27559;DHT22;15002;52.028;5.670;2024-02-23T15:22:34;12.50;99.90
27559;DHT22;15002;52.028;5.670;2024-02-23T15:25:00;12.40;99.90
27559;DHT22;15002;52.028;5.670;2024-02-23T15:27:26;12.30;99.90
27559;DHT22;15002;52.028;5.670;2024-02-23T15:29:52;11.80;99.90
27559;DHT22;15002;52.028;5.670;2024-02-23T15:32:18;11.50;99.90
27559;DHT22;15002;52.028;5.670;2024-02-23T15:34:43;11.60;99.90